Time;durP1;ratioP1;P1;durP2;ratioP2;P2;SDS_P1;SDS_P2;PMS_P1;PMS_P2;Temp;Humidity;BMP_temperature;BMP_pressure;BME280_temperature;BME280_humidity;BME280_pressure;Samples;Min_cycle;Max_cycle;Signal;HPM_P1;HPM_P2
2022/03/12 00:02:18;;;;;;;10.18;2.30;;;;;;;;;;5046582;28;20025;-85
2022/03/12 00:04:45;;;;;;;11.98;2.10;;;;;;;;;;5046132;28;20032;-83
2022/03/12 00:07:12;;;;;;;8.13;1.80;;;;;;;;;;5045006;28;20021;-84
2022/03/12 00:09:39;;;;;;;9.65;2.13;;;;;;;;;;5046225;28;20028;-83
2022/03/12 00:12:05;;;;;;;13.40;2.15;;;;;;;;;;5045758;28;20060;-85
2022/03/12 00:14:35;;;;;;;17.88;2.13;;;;;;;;;;5050689;28;20021;-82
2022/03/12 00:17:03;;;;;;;10.82;1.75;;;;;;;;;;5052367;28;20055;-83
2022/03/12 00:19:30;;;;;;;9.80;2.03;;;;;;;;;;5051944;28;20037;-82
2022/03/12 00:21:57;;;;;;;15.30;2.35;;;;;;;;;;5050994;28;20021;-83
2022/03/12 00:24:27;;;;;;;13.18;2.28;;;;;;;;;;5048607;28;20033;-82
2022/03/12 00:26:53;;;;;;;8.15;1.85;;;;;;;;;;5048728;28;20601;-83
2022/03/12 00:29:20;;;;;;;9.13;2.50;;;;;;;;;;5051295;28;20032;-83
2022/03/12 00:31:48;;;;;;;7.13;1.83;;;;;;;;;;5050605;28;20033;-83
2022/03/12 00:34:15;;;;;;;11.33;2.03;;;;;;;;;;5051580;28;20115;-82
2022/03/12 00:36:41;;;;;;;8.45;1.75;;;;;;;;;;5051504;28;20079;-83
2022/03/12 00:39:09;;;;;;;18.33;2.90;;;;;;;;;;5050648;28;20078;-83
2022/03/12 00:41:36;;;;;;;13.98;1.92;;;;;;;;;;5050890;28;20523;-83
2022/03/12 00:44:02;;;;;;;15.60;2.58;;;;;;;;;;5051611;28;20045;-82
2022/03/12 00:46:29;;;;;;;12.82;2.70;;;;;;;;;;5051221;28;20039;-84
2022/03/12 00:48:55;;;;;;;11.55;2.60;;;;;;;;;;5049534;28;20029;-82
2022/03/12 00:51:21;;;;;;;14.27;2.13;;;;;;;;;;5051024;28;20495;-83
2022/03/12 00:53:47;;;;;;;13.05;2.08;;;;;;;;;;5050211;28;20064;-83
2022/03/12 00:56:13;;;;;;;13.52;1.90;;;;;;;;;;5051064;28;20021;-83
2022/03/12 00:58:45;;;;;;;10.82;2.35;;;;;;;;;;5049701;28;20057;-83
2022/03/12 01:01:11;;;;;;;15.48;2.22;;;;;;;;;;5050906;28;20538;-83
2022/03/12 01:03:38;;;;;;;11.63;2.00;;;;;;;;;;5050928;28;20032;-82
2022/03/12 01:06:05;;;;;;;19.67;2.83;;;;;;;;;;5050699;28;20079;-82
2022/03/12 01:08:32;;;;;;;15.23;2.13;;;;;;;;;;5051052;28;20048;-82
2022/03/12 01:11:00;;;;;;;14.65;2.38;;;;;;;;;;5049422;28;20072;-90
2022/03/12 01:13:28;;;;;;;10.80;1.92;;;;;;;;;;5050083;28;20378;-85
2022/03/12 01:15:54;;;;;;;17.75;2.30;;;;;;;;;;5050611;28;20338;-88
2022/03/12 01:18:21;;;;;;;12.20;2.08;;;;;;;;;;5050075;28;20140;-84
2022/03/12 01:20:47;;;;;;;12.50;2.10;;;;;;;;;;5049759;28;20040;-89
2022/03/12 01:23:15;;;;;;;25.17;2.80;;;;;;;;;;5050531;28;20029;-83
2022/03/12 01:25:42;;;;;;;10.85;2.10;;;;;;;;;;5049979;28;20035;-85
2022/03/12 01:28:12;;;;;;;15.27;2.20;;;;;;;;;;5050348;28;20021;-84
2022/03/12 01:30:41;;;;;;;12.68;2.63;;;;;;;;;;5050116;28;20036;-86
2022/03/12 01:33:07;;;;;;;13.40;2.55;;;;;;;;;;5048648;28;20094;-83
2022/03/12 01:35:33;;;;;;;13.75;2.45;;;;;;;;;;5051286;28;20071;-84
2022/03/12 01:38:01;;;;;;;10.85;2.67;;;;;;;;;;5048960;28;20036;-85
2022/03/12 01:40:28;;;;;;;7.40;2.20;;;;;;;;;;5050583;28;20108;-87
2022/03/12 01:42:54;;;;;;;9.95;2.45;;;;;;;;;;5049516;28;20369;-84
2022/03/12 01:45:28;;;;;;;17.60;2.55;;;;;;;;;;5049893;28;20016;-86
2022/03/12 01:47:58;;;;;;;15.98;1.88;;;;;;;;;;5049779;28;20029;-86
2022/03/12 01:50:25;;;;;;;10.02;1.98;;;;;;;;;;5049769;28;20131;-85
2022/03/12 01:52:51;;;;;;;13.38;2.55;;;;;;;;;;5049664;28;20489;-84
2022/03/12 01:55:18;;;;;;;9.77;2.15;;;;;;;;;;5050066;28;20025;-86
2022/03/12 01:57:44;;;;;;;18.50;2.42;;;;;;;;;;5050031;28;20123;-83
2022/03/12 02:00:23;;;;;;;8.18;2.40;;;;;;;;;;5049686;28;20021;-86
2022/03/12 02:02:53;;;;;;;9.45;2.40;;;;;;;;;;5049838;28;20031;-84
2022/03/12 02:05:20;;;;;;;10.90;2.22;;;;;;;;;;5049665;28;20066;-87
2022/03/12 02:07:46;;;;;;;11.40;2.22;;;;;;;;;;5049800;28;20107;-85
2022/03/12 02:10:20;;;;;;;16.90;2.20;;;;;;;;;;5048610;28;20116;-86
2022/03/12 02:12:46;;;;;;;11.20;2.13;;;;;;;;;;5049121;28;20079;-88
2022/03/12 02:15:13;;;;;;;14.48;2.40;;;;;;;;;;5049862;28;20013;-86
2022/03/12 02:17:39;;;;;;;11.45;2.38;;;;;;;;;;5049374;28;20574;-87
2022/03/12 02:20:06;;;;;;;11.80;2.40;;;;;;;;;;5049637;28;20492;-85
2022/03/12 02:22:32;;;;;;;18.50;2.38;;;;;;;;;;5049751;28;20047;-84
2022/03/12 02:24:58;;;;;;;13.20;2.60;;;;;;;;;;5048910;28;20507;-86
2022/03/12 02:27:25;;;;;;;16.65;2.30;;;;;;;;;;5049140;28;20057;-84
2022/03/12 02:29:52;;;;;;;12.77;2.47;;;;;;;;;;5049038;28;20135;-86
2022/03/12 02:32:18;;;;;;;14.02;2.47;;;;;;;;;;5048825;28;20037;-91
2022/03/12 02:34:49;;;;;;;13.10;2.22;;;;;;;;;;5048819;28;20056;-83
2022/03/12 02:37:29;;;;;;;12.48;2.25;;;;;;;;;;5043002;28;20139;-84
2022/03/12 02:39:55;;;;;;;21.55;2.75;;;;;;;;;;5048808;28;20032;-83
2022/03/12 02:42:23;;;;;;;14.40;2.47;;;;;;;;;;5048834;28;20029;-82
2022/03/12 02:44:52;;;;;;;13.30;2.85;;;;;;;;;;5049618;28;20067;-82
2022/03/12 02:47:21;;;;;;;13.73;2.95;;;;;;;;;;5050836;28;20067;-82
2022/03/12 02:49:56;;;;;;;19.58;2.75;;;;;;;;;;5050763;28;20120;-82
2022/03/12 02:52:22;;;;;;;14.75;2.70;;;;;;;;;;5029157;28;20057;-83
2022/03/12 02:54:49;;;;;;;18.08;2.40;;;;;;;;;;5039499;28;20515;-83
2022/03/12 02:57:16;;;;;;;18.23;3.40;;;;;;;;;;5048992;28;20040;-83
2022/03/12 02:59:43;;;;;;;21.55;3.30;;;;;;;;;;5048654;28;20033;-84
2022/03/12 03:02:09;;;;;;;17.08;2.40;;;;;;;;;;5049356;28;20444;-82
2022/03/12 03:04:37;;;;;;;22.40;2.90;;;;;;;;;;5049361;28;20057;-82
2022/03/12 03:07:04;;;;;;;24.50;2.75;;;;;;;;;;5043612;28;20275;-83
2022/03/12 03:09:30;;;;;;;15.00;2.72;;;;;;;;;;5039767;28;20080;-87
2022/03/12 03:11:57;;;;;;;20.13;3.28;;;;;;;;;;5047089;28;20029;-85
2022/03/12 03:14:27;;;;;;;20.23;2.55;;;;;;;;;;5047982;28;20073;-83
2022/03/12 03:16:58;;;;;;;11.25;2.67;;;;;;;;;;5047167;28;20033;-88
2022/03/12 03:19:26;;;;;;;20.83;3.10;;;;;;;;;;5031757;28;20028;-86
2022/03/12 03:21:55;;;;;;;14.45;2.72;;;;;;;;;;5047896;28;20017;-87
2022/03/12 03:24:21;;;;;;;13.23;2.95;;;;;;;;;;5048849;28;20041;-86
2022/03/12 03:26:47;;;;;;;14.50;2.67;;;;;;;;;;5047900;28;20017;-83
2022/03/12 03:29:15;;;;;;;30.83;3.13;;;;;;;;;;5047293;28;20044;-85
2022/03/12 03:31:41;;;;;;;26.45;2.80;;;;;;;;;;5048755;28;20017;-82
2022/03/12 03:34:08;;;;;;;21.48;3.40;;;;;;;;;;5048926;28;20033;-85
2022/03/12 03:36:34;;;;;;;23.58;2.90;;;;;;;;;;5048306;28;20021;-88
2022/03/12 03:39:00;;;;;;;23.23;2.80;;;;;;;;;;5048119;28;20064;-87
2022/03/12 03:41:26;;;;;;;25.33;3.20;;;;;;;;;;5048226;28;20159;-87
2022/03/12 03:43:52;;;;;;;18.50;2.60;;;;;;;;;;5047598;28;20029;-83
2022/03/12 03:46:20;;;;;;;52.25;5.30;;;;;;;;;;5048496;28;20471;-82
2022/03/12 03:48:47;;;;;;;15.65;2.30;;;;;;;;;;5049401;28;20029;-82
2022/03/12 03:51:14;;;;;;;25.50;3.42;;;;;;;;;;5051256;28;20396;-82
2022/03/12 03:53:40;;;;;;;18.17;2.80;;;;;;;;;;5052963;28;20036;-84
2022/03/12 03:56:06;;;;;;;17.77;2.92;;;;;;;;;;5052339;28;20082;-85
2022/03/12 03:58:34;;;;;;;17.05;2.80;;;;;;;;;;5052763;28;20331;-82
2022/03/12 04:01:12;;;;;;;23.10;3.00;;;;;;;;;;5051683;28;20036;-83
2022/03/12 04:03:41;;;;;;;13.15;2.40;;;;;;;;;;5052898;28;20025;-83
2022/03/12 04:06:07;;;;;;;20.17;2.72;;;;;;;;;;5051485;28;20021;-83
2022/03/12 04:08:34;;;;;;;19.10;2.45;;;;;;;;;;5052051;28;20451;-86
2022/03/12 04:11:06;;;;;;;19.10;2.42;;;;;;;;;;5051313;28;20079;-83
2022/03/12 04:13:33;;;;;;;18.33;3.05;;;;;;;;;;5051276;28;20392;-82
2022/03/12 04:16:00;;;;;;;17.40;2.95;;;;;;;;;;5051220;28;20083;-83
2022/03/12 04:18:26;;;;;;;18.88;3.10;;;;;;;;;;5050499;28;20061;-83
2022/03/12 04:20:53;;;;;;;32.45;3.50;;;;;;;;;;5050764;28;20036;-82
2022/03/12 04:23:21;;;;;;;19.50;3.13;;;;;;;;;;5051749;28;20112;-83
2022/03/12 04:25:55;;;;;;;21.48;3.45;;;;;;;;;;5051108;28;20025;-82
2022/03/12 04:28:21;;;;;;;20.45;2.78;;;;;;;;;;5051762;28;20052;-82
2022/03/12 04:30:47;;;;;;;17.05;3.20;;;;;;;;;;5050238;28;20017;-81
2022/03/12 04:33:14;;;;;;;17.40;3.28;;;;;;;;;;5050547;28;20401;-82
2022/03/12 04:35:41;;;;;;;16.90;3.00;;;;;;;;;;5051636;28;20366;-83
2022/03/12 04:38:09;;;;;;;23.55;3.03;;;;;;;;;;5051005;28;20029;-86
2022/03/12 04:40:36;;;;;;;15.70;2.45;;;;;;;;;;5051074;28;20021;-82
2022/03/12 04:43:04;;;;;;;13.75;2.38;;;;;;;;;;5050143;28;20033;-83
2022/03/12 04:45:30;;;;;;;16.77;2.90;;;;;;;;;;5050933;28;20021;-84
2022/03/12 04:47:57;;;;;;;17.58;3.05;;;;;;;;;;5050793;28;20037;-84
2022/03/12 04:50:24;;;;;;;20.48;2.58;;;;;;;;;;5050827;28;20025;-83
2022/03/12 04:52:57;;;;;;;24.60;3.35;;;;;;;;;;5050819;28;20037;-84
2022/03/12 04:55:24;;;;;;;23.65;3.53;;;;;;;;;;5051333;28;20503;-82
2022/03/12 04:57:50;;;;;;;20.00;2.90;;;;;;;;;;5050530;28;20021;-83
2022/03/12 05:00:18;;;;;;;15.07;2.70;;;;;;;;;;5050399;28;20029;-84
2022/03/12 05:02:45;;;;;;;16.88;2.78;;;;;;;;;;5051089;28;20500;-83
2022/03/12 05:05:12;;;;;;;15.45;2.55;;;;;;;;;;5050417;28;20037;-83
2022/03/12 05:07:43;;;;;;;22.05;3.30;;;;;;;;;;5049417;28;20634;-84
2022/03/12 05:10:10;;;;;;;20.00;3.63;;;;;;;;;;5051717;28;20453;-85
2022/03/12 05:12:36;;;;;;;21.83;2.85;;;;;;;;;;5050154;28;20029;-89
2022/03/12 05:15:04;;;;;;;23.95;3.17;;;;;;;;;;5051092;28;20400;-87
2022/03/12 05:17:38;;;;;;;23.10;3.13;;;;;;;;;;5057747;28;20021;-84
2022/03/12 05:20:04;;;;;;;18.85;3.00;;;;;;;;;;5060552;28;20851;-82
2022/03/12 05:22:30;;;;;;;33.05;3.55;;;;;;;;;;5061232;28;20028;-82
2022/03/12 05:24:56;;;;;;;23.52;3.40;;;;;;;;;;5051211;28;20075;-83
2022/03/12 05:27:22;;;;;;;21.40;3.60;;;;;;;;;;5031080;28;20021;-83
2022/03/12 05:29:48;;;;;;;21.77;3.35;;;;;;;;;;5046765;28;20390;-86
2022/03/12 05:32:15;;;;;;;24.73;3.55;;;;;;;;;;5050417;28;20044;-82
2022/03/12 05:34:42;;;;;;;18.63;2.90;;;;;;;;;;5049931;28;20432;-86
2022/03/12 05:37:09;;;;;;;21.00;2.85;;;;;;;;;;5049854;28;20027;-86
2022/03/12 05:39:36;;;;;;;23.25;3.00;;;;;;;;;;5050424;28;20029;-87
2022/03/12 05:42:05;;;;;;;23.70;3.53;;;;;;;;;;5049578;28;20025;-83
2022/03/12 05:44:33;;;;;;;25.50;3.80;;;;;;;;;;5050252;28;20025;-86
2022/03/12 05:46:59;;;;;;;17.73;2.88;;;;;;;;;;5050184;28;20152;-84
2022/03/12 05:49:25;;;;;;;26.88;3.35;;;;;;;;;;5050150;28;20025;-84
2022/03/12 05:51:51;;;;;;;22.75;3.13;;;;;;;;;;5050014;28;20432;-86
2022/03/12 05:54:17;;;;;;;22.15;4.63;;;;;;;;;;5050588;28;20021;-88
2022/03/12 05:56:43;;;;;;;25.60;2.67;;;;;;;;;;5051214;28;20025;-86
2022/03/12 05:59:09;;;;;;;17.63;3.55;;;;;;;;;;5050827;28;20036;-85
2022/03/12 06:01:36;;;;;;;23.95;3.28;;;;;;;;;;5050114;28;20100;-85
2022/03/12 06:04:02;;;;;;;19.25;3.13;;;;;;;;;;5048502;28;20131;-83
2022/03/12 06:06:30;;;;;;;14.65;2.42;;;;;;;;;;5049891;28;20025;-85
2022/03/12 06:08:57;;;;;;;20.85;3.28;;;;;;;;;;5049380;28;20477;-82
2022/03/12 06:11:25;;;;;;;17.67;3.00;;;;;;;;;;5047267;28;20404;-86
2022/03/12 06:13:57;;;;;;;14.23;2.83;;;;;;;;;;5047324;28;20037;-83
2022/03/12 06:16:24;;;;;;;18.42;2.88;;;;;;;;;;5049450;28;20058;-83
2022/03/12 06:18:52;;;;;;;28.52;4.15;;;;;;;;;;5048954;28;20104;-83
2022/03/12 06:21:18;;;;;;;20.75;4.53;;;;;;;;;;5049197;28;20120;-82
2022/03/12 06:23:45;;;;;;;13.40;3.22;;;;;;;;;;5049120;28;20438;-82
2022/03/12 06:26:14;;;;;;;17.75;3.30;;;;;;;;;;5050098;28;20037;-83
2022/03/12 06:28:41;;;;;;;32.10;3.47;;;;;;;;;;5049449;28;20379;-82
2022/03/12 06:31:07;;;;;;;18.27;3.13;;;;;;;;;;5049180;28;20029;-82
2022/03/12 06:33:34;;;;;;;23.80;3.45;;;;;;;;;;5048856;28;20119;-83
2022/03/12 06:36:02;;;;;;;22.88;3.15;;;;;;;;;;5048525;28;20031;-83
2022/03/12 06:38:28;;;;;;;17.40;3.38;;;;;;;;;;5048843;28;20029;-82
2022/03/12 06:40:58;;;;;;;14.70;2.88;;;;;;;;;;5048851;28;20381;-85
2022/03/12 06:43:26;;;;;;;19.13;3.40;;;;;;;;;;5049180;28;20025;-84
2022/03/12 06:45:53;;;;;;;29.85;3.85;;;;;;;;;;5048475;28;20475;-83
2022/03/12 06:48:20;;;;;;;12.75;2.92;;;;;;;;;;5048740;28;20061;-82
2022/03/12 06:50:47;;;;;;;19.10;3.50;;;;;;;;;;5048451;28;20074;-83
2022/03/12 06:53:14;;;;;;;19.45;3.15;;;;;;;;;;5049361;28;20037;-85
2022/03/12 06:55:41;;;;;;;26.02;4.03;;;;;;;;;;5049714;28;20063;-83
2022/03/12 06:58:08;;;;;;;16.67;3.20;;;;;;;;;;5047236;28;20020;-84
2022/03/12 07:00:34;;;;;;;17.27;3.22;;;;;;;;;;5047939;28;20028;-83
2022/03/12 07:03:01;;;;;;;23.55;4.65;;;;;;;;;;5048569;28;20096;-83
2022/03/12 07:05:27;;;;;;;15.30;3.15;;;;;;;;;;5047271;28;20025;-83
2022/03/12 07:07:54;;;;;;;20.60;3.30;;;;;;;;;;5047638;28;20075;-82
2022/03/12 07:10:20;;;;;;;27.65;3.78;;;;;;;;;;5048405;28;20558;-83
2022/03/12 07:12:47;;;;;;;19.73;3.72;;;;;;;;;;5047138;28;20059;-87
2022/03/12 07:15:14;;;;;;;20.35;3.88;;;;;;;;;;5049899;28;20515;-89
2022/03/12 07:17:44;;;;;;;23.88;3.35;;;;;;;;;;5049308;28;20036;-85
2022/03/12 07:20:11;;;;;;;22.35;3.83;;;;;;;;;;5049335;28;20562;-86
2022/03/12 07:22:38;;;;;;;17.67;3.30;;;;;;;;;;5048363;28;20043;-91
2022/03/12 07:25:05;;;;;;;28.65;4.22;;;;;;;;;;5048331;28;20040;-85
2022/03/12 07:27:31;;;;;;;21.95;4.43;;;;;;;;;;5047931;28;20021;-87
2022/03/12 07:30:00;;;;;;;25.83;3.85;;;;;;;;;;5047963;28;20017;-88
2022/03/12 07:32:26;;;;;;;16.67;3.38;;;;;;;;;;5048672;28;20067;-86
2022/03/12 07:34:53;;;;;;;37.13;3.87;;;;;;;;;;5048119;28;20049;-85
2022/03/12 07:37:21;;;;;;;22.88;3.92;;;;;;;;;;5048866;28;20037;-88
2022/03/12 07:39:47;;;;;;;22.30;3.78;;;;;;;;;;5048677;28;20025;-88
2022/03/12 07:42:13;;;;;;;27.08;4.18;;;;;;;;;;5049315;28;20123;-86
2022/03/12 07:44:39;;;;;;;22.25;3.10;;;;;;;;;;5050173;28;20100;-87
2022/03/12 07:47:07;;;;;;;20.63;4.00;;;;;;;;;;5048761;28;20505;-89
2022/03/12 07:49:34;;;;;;;26.10;4.07;;;;;;;;;;5048802;28;20017;-87
2022/03/12 07:52:00;;;;;;;30.35;5.00;;;;;;;;;;5054968;28;20029;-84
2022/03/12 07:54:27;;;;;;;25.35;4.22;;;;;;;;;;5058131;28;20025;-84
2022/03/12 07:56:53;;;;;;;24.48;4.60;;;;;;;;;;5060055;28;20048;-83
2022/03/12 07:59:19;;;;;;;23.33;4.40;;;;;;;;;;5051068;28;20025;-87
2022/03/12 08:01:46;;;;;;;23.55;4.47;;;;;;;;;;5048606;28;20093;-84
2022/03/12 08:04:12;;;;;;;24.70;4.50;;;;;;;;;;5049123;28;20028;-86
2022/03/12 08:06:39;;;;;;;27.75;5.18;;;;;;;;;;5046248;28;20377;-87
2022/03/12 08:09:05;;;;;;;29.48;4.97;;;;;;;;;;5047798;28;20246;-89
2022/03/12 08:11:32;;;;;;;21.90;4.32;;;;;;;;;;5048374;28;20032;-89
2022/03/12 08:14:03;;;;;;;19.60;3.67;;;;;;;;;;5048063;28;20033;-87
2022/03/12 08:16:30;;;;;;;29.80;4.22;;;;;;;;;;5047956;28;20035;-90
2022/03/12 08:18:56;;;;;;;37.72;3.88;;;;;;;;;;5047671;28;20025;-90
2022/03/12 08:21:22;;;;;;;27.70;3.72;;;;;;;;;;5047585;28;20377;-87
2022/03/12 08:23:49;;;;;;;23.35;4.10;;;;;;;;;;5047477;28;20499;-86
2022/03/12 08:26:28;;;;;;;;;;;;;;;;;;;;;
2022/03/12 08:28:55;;;;;;;22.80;4.32;;;;;;;;;;5049619;28;20383;-91
2022/03/12 08:31:21;;;;;;;34.97;4.78;;;;;;;;;;5048609;28;20091;-92
2022/03/12 08:34:08;;;;;;;25.05;4.03;;;;;;;;;;5048603;28;20484;-93
2022/03/12 08:37:03;;;;;;;31.38;3.85;;;;;;;;;;5052377;28;20430;-92
2022/03/12 08:39:32;;;;;;;32.85;3.80;;;;;;;;;;5032650;28;20041;-92
2022/03/12 08:41:58;;;;;;;30.48;4.38;;;;;;;;;;5031974;28;20033;-92
2022/03/12 08:44:24;;;;;;;22.98;3.92;;;;;;;;;;5034676;28;20029;-91
2022/03/12 08:46:51;;;;;;;33.00;4.43;;;;;;;;;;5051275;28;20033;-93
2022/03/12 08:49:18;;;;;;;23.33;3.95;;;;;;;;;;5051762;28;20188;-94
2022/03/12 08:52:25;;;;;;;22.65;3.83;;;;;;;;;;5052931;28;20490;-92
2022/03/12 08:58:41;;;;;;;;;;;;;;;;;;;;;
2022/03/12 09:01:08;;;;;;;25.83;3.85;;;;;;;;;;5032863;28;20044;-91
2022/03/12 09:03:35;;;;;;;27.20;3.80;;;;;;;;;;5044543;28;20044;-91
2022/03/12 09:06:02;;;;;;;39.08;4.35;;;;;;;;;;5051959;28;20396;-90
2022/03/12 09:08:28;;;;;;;33.63;3.92;;;;;;;;;;5051284;28;20388;-92
2022/03/12 09:10:59;;;;;;;29.45;3.85;;;;;;;;;;5050969;28;20025;-92
2022/03/12 09:13:25;;;;;;;37.35;5.25;;;;;;;;;;5052103;28;20085;-91
2022/03/12 09:15:54;;;;;;;36.83;3.88;;;;;;;;;;5052146;28;20028;-92
2022/03/12 09:18:21;;;;;;;24.08;3.38;;;;;;;;;;5050935;28;20068;-91
2022/03/12 09:21:10;;;;;;;30.48;3.58;;;;;;;;;;5054177;28;20027;-93
2022/03/12 09:23:36;;;;;;;28.35;3.50;;;;;;;;;;5048232;28;20095;-90
2022/03/12 09:26:18;;;;;;;31.38;4.22;;;;;;;;;;5052490;28;20154;-90
2022/03/12 09:28:53;;;;;;;29.80;3.90;;;;;;;;;;5037047;28;20040;-93
2022/03/12 09:32:08;;;;;;;31.65;3.63;;;;;;;;;;5051565;28;20033;-91
2022/03/12 09:34:50;;;;;;;;;;;;;;;;;;;;;
2022/03/12 09:37:17;;;;;;;24.80;3.47;;;;;;;;;;5053444;28;20021;-92
2022/03/12 09:39:43;;;;;;;29.27;4.00;;;;;;;;;;5056693;28;20064;-91
2022/03/12 09:42:30;;;;;;;32.95;3.90;;;;;;;;;;5048027;28;20028;-90
2022/03/12 09:45:17;;;;;;;25.08;3.83;;;;;;;;;;5049468;28;20116;-92
2022/03/12 10:07:46;;;;;;;;;;;;;;;;;;;;;
2022/03/12 10:33:25;;;;;;;14.75;2.63;;;;;;;;;;5064931;22;20058;-89
2022/03/12 10:36:12;;;;;;;25.65;3.83;;;;;;;;;;4976710;28;20030;-94
2022/03/12 10:38:41;;;;;;;24.25;2.72;;;;;;;;;;4971963;28;20026;-91
2022/03/12 10:41:39;;;;;;;23.55;3.00;;;;;;;;;;4973681;28;20030;-93
2022/03/12 10:44:06;;;;;;;19.63;2.53;;;;;;;;;;4990568;28;20038;-92
2022/03/12 10:46:41;;;;;;;23.77;3.17;;;;;;;;;;4991850;28;20026;-93
2022/03/12 10:49:07;;;;;;;20.10;2.60;;;;;;;;;;4993279;28;20034;-91
2022/03/12 10:51:40;;;;;;;16.20;2.70;;;;;;;;;;4992929;28;20462;-95
2022/03/12 10:54:35;;;;;;;;;;;;;;;;;;;;;
2022/03/12 10:59:50;;;;;;;18.15;2.58;;;;;;;;;;4962385;28;20034;-92
2022/03/12 11:02:17;;;;;;;24.83;3.55;;;;;;;;;;4990977;28;20026;-92
2022/03/12 11:11:00;;;;;;;17.85;3.05;;;;;;;;;;4963703;29;20035;-94
2022/03/12 11:13:47;;;;;;;16.48;2.95;;;;;;;;;;5007161;28;20030;-92
2022/03/12 11:16:40;;;;;;;17.20;2.67;;;;;;;;;;5004412;28;20450;-93
2022/03/12 11:19:07;;;;;;;15.32;2.20;;;;;;;;;;4987209;28;20031;-92
2022/03/12 11:21:39;;;;;;;14.00;3.20;;;;;;;;;;4982598;28;20114;-91
2022/03/12 11:24:17;;;;;;;17.70;2.65;;;;;;;;;;4978610;28;20050;-92
2022/03/12 11:26:49;;;;;;;15.40;2.58;;;;;;;;;;4977512;28;20128;-91
2022/03/12 11:29:16;;;;;;;15.70;2.70;;;;;;;;;;4979411;28;20030;-92
2022/03/12 11:31:55;;;;;;;17.15;2.83;;;;;;;;;;4987099;28;20045;-91
2022/03/12 11:34:24;;;;;;;16.38;2.97;;;;;;;;;;4987975;28;20604;-89
2022/03/12 11:37:00;;;;;;;16.52;2.65;;;;;;;;;;4985362;28;20474;-90
2022/03/12 11:39:40;;;;;;;21.60;2.97;;;;;;;;;;4994025;28;20073;-92
2022/03/12 11:46:05;;;;;;;;;;;;;;;;;;;;;
2022/03/12 11:55:09;;;;;;;16.92;2.42;;;;;;;;;;4893991;29;20040;-91
2022/03/12 11:58:16;;;;;;;13.52;2.40;;;;;;;;;;4880307;29;20032;-94
2022/03/12 12:01:19;;;;;;;;;;;;;;;;;;;;;
2022/03/12 12:04:05;;;;;;;;;;;;;;;;;;;;;
2022/03/12 12:06:40;;;;;;;12.15;2.15;;;;;;;;;;4893278;29;20489;-91
2022/03/12 12:09:06;;;;;;;;;;;;;;;;;;4895928;29;20041;-90
2022/03/12 12:11:35;;;;;;;10.90;2.30;;;;;;;;;;4916588;28;19912;-93
2022/03/12 12:14:01;;;;;;;17.95;2.63;;;;;;;;;;4988335;28;20042;-90
2022/03/12 12:16:29;;;;;;;13.27;2.30;;;;;;;;;;4989319;28;20086;-90
2022/03/12 12:18:55;;;;;;;11.63;2.30;;;;;;;;;;4975889;28;20046;-92
2022/03/12 12:21:23;;;;;;;14.65;2.42;;;;;;;;;;4976155;28;20027;-94
2022/03/12 12:23:49;;;;;;;;;;;;;;;;;;4975671;28;20558;-91
2022/03/12 12:26:20;;;;;;;13.32;2.10;;;;;;;;;;4974599;28;19918;-91
2022/03/12 12:28:48;;;;;;;16.33;2.65;;;;;;;;;;4973483;28;20038;-91
2022/03/12 12:31:18;;;;;;;12.30;2.17;;;;;;;;;;4974052;28;20110;-90
2022/03/12 12:33:44;;;;;;;13.63;2.30;;;;;;;;;;4974453;28;20035;-90
2022/03/12 12:36:17;;;;;;;13.55;2.42;;;;;;;;;;4973003;28;20062;-91
2022/03/12 12:39:02;;;;;;;15.50;2.30;;;;;;;;;;4974299;28;20533;-90
2022/03/12 12:41:48;;;;;;;19.25;3.15;;;;;;;;;;4974221;28;20030;-91
2022/03/12 12:44:14;;;;;;;10.95;2.20;;;;;;;;;;4973179;28;20031;-90
2022/03/12 12:46:41;;;;;;;13.27;2.92;;;;;;;;;;4974423;28;20023;-91
2022/03/12 12:49:07;;;;;;;17.25;2.60;;;;;;;;;;4974165;28;20368;-89
2022/03/12 12:51:48;;;;;;;14.30;2.25;;;;;;;;;;4973851;28;20019;-90
2022/03/12 12:54:17;;;;;;;22.52;2.70;;;;;;;;;;4973992;28;20039;-92
2022/03/12 12:56:43;;;;;;;;;;;;;;;;;;4973425;28;20074;-90
2022/03/12 12:59:10;;;;;;;12.48;2.40;;;;;;;;;;4972775;28;19910;-89
2022/03/12 13:01:42;;;;;;;18.45;2.55;;;;;;;;;;4974019;28;20019;-91
2022/03/12 13:04:09;;;;;;;18.83;2.60;;;;;;;;;;4973491;28;20058;-90
2022/03/12 13:06:38;;;;;;;19.05;2.10;;;;;;;;;;4972508;28;20027;-92
2022/03/12 13:09:08;;;;;;;13.40;2.47;;;;;;;;;;4973725;28;20025;-90
2022/03/12 13:11:34;;;;;;;12.77;2.22;;;;;;;;;;4973743;28;20483;-90
2022/03/12 13:14:03;;;;;;;17.80;3.45;;;;;;;;;;4973592;28;20069;-91
2022/03/12 13:16:47;;;;;;;12.60;2.40;;;;;;;;;;4973646;28;20042;-91
2022/03/12 13:19:27;;;;;;;12.70;2.05;;;;;;;;;;4972364;28;20037;-91
2022/03/12 13:22:10;;;;;;;16.88;3.03;;;;;;;;;;4973647;28;20423;-92
2022/03/12 13:24:42;;;;;;;18.63;2.72;;;;;;;;;;4972580;28;20031;-91
2022/03/12 13:27:17;;;;;;;14.23;2.15;;;;;;;;;;4972209;28;20030;-91
2022/03/12 13:29:43;;;;;;;16.63;2.47;;;;;;;;;;4973476;28;20019;-91
2022/03/12 13:32:17;;;;;;;12.18;2.33;;;;;;;;;;4973265;28;20048;-90
2022/03/12 13:34:43;;;;;;;18.70;2.78;;;;;;;;;;4972453;28;20394;-92
2022/03/12 13:37:12;;;;;;;13.32;3.60;;;;;;;;;;4972352;28;20031;-90
2022/03/12 13:39:38;;;;;;;12.43;2.15;;;;;;;;;;4973392;28;20125;-90
2022/03/12 13:42:04;;;;;;;9.35;2.78;;;;;;;;;;4973617;28;20030;-89
2022/03/12 13:44:30;;;;;;;13.52;2.80;;;;;;;;;;4973994;28;20026;-93
2022/03/12 13:46:56;;;;;;;12.45;2.17;;;;;;;;;;4984452;28;20022;-90
2022/03/12 13:49:23;;;;;;;17.58;2.75;;;;;;;;;;4996704;28;20031;-90
2022/03/12 13:51:54;;;;;;;12.50;2.20;;;;;;;;;;4995107;28;20026;-90
2022/03/12 13:54:23;;;;;;;12.23;2.50;;;;;;;;;;4983656;28;20622;-92
2022/03/12 13:56:56;;;;;;;14.73;2.65;;;;;;;;;;4973549;28;20033;-92
2022/03/12 13:59:27;;;;;;;15.15;2.42;;;;;;;;;;4971773;28;20491;-92
2022/03/12 14:01:54;;;;;;;12.40;2.85;;;;;;;;;;4971869;28;20027;-92
2022/03/12 14:04:20;;;;;;;13.48;2.55;;;;;;;;;;4971811;28;20139;-91
2022/03/12 14:06:47;;;;;;;11.65;2.10;;;;;;;;;;4971732;28;20487;-90
2022/03/12 14:09:17;;;;;;;15.10;2.95;;;;;;;;;;4971624;28;20022;-92
2022/03/12 14:11:47;;;;;;;14.77;2.95;;;;;;;;;;4972698;28;20018;-92
2022/03/12 14:14:14;;;;;;;18.45;2.75;;;;;;;;;;4971201;28;20047;-92
2022/03/12 14:16:43;;;;;;;12.13;2.30;;;;;;;;;;4972425;28;20081;-89
2022/03/12 14:19:11;;;;;;;14.23;2.33;;;;;;;;;;4972500;28;20039;-90
2022/03/12 14:21:40;;;;;;;15.20;2.40;;;;;;;;;;4972345;28;20128;-90
2022/03/12 14:24:28;;;;;;;14.70;2.30;;;;;;;;;;4971109;28;20027;-90
2022/03/12 14:26:54;;;;;;;7.07;2.10;;;;;;;;;;4964439;28;20035;-89
2022/03/12 14:29:21;;;;;;;10.60;2.05;;;;;;;;;;4970964;28;20298;-90
2022/03/12 14:31:48;;;;;;;13.52;2.35;;;;;;;;;;4970687;28;20038;-91
2022/03/12 14:34:14;;;;;;;12.95;2.22;;;;;;;;;;4970305;28;20035;-91
2022/03/12 14:36:42;;;;;;;7.45;1.92;;;;;;;;;;4972163;28;20023;-90
2022/03/12 14:39:14;;;;;;;15.40;2.30;;;;;;;;;;4971096;28;20027;-90
2022/03/12 14:41:40;;;;;;;13.70;2.33;;;;;;;;;;4972162;28;20491;-89
2022/03/12 14:44:10;;;;;;;14.02;2.50;;;;;;;;;;4971965;28;20077;-90
2022/03/12 14:46:36;;;;;;;11.75;2.33;;;;;;;;;;4972174;28;20105;-91
2022/03/12 14:49:04;;;;;;;19.63;3.53;;;;;;;;;;4971353;28;20099;-90
2022/03/12 14:51:30;;;;;;;17.38;5.97;;;;;;;;;;4972379;28;20117;-90
2022/03/12 14:53:56;;;;;;;11.40;2.47;;;;;;;;;;4971632;28;20038;-91
2022/03/12 14:56:25;;;;;;;10.45;2.08;;;;;;;;;;4972072;28;20033;-90
2022/03/12 14:58:51;;;;;;;15.55;2.50;;;;;;;;;;4971938;28;20066;-92
2022/03/12 15:01:29;;;;;;;16.23;2.60;;;;;;;;;;4972069;28;20027;-92
2022/03/12 15:03:58;;;;;;;13.45;2.20;;;;;;;;;;4971908;28;20505;-90
2022/03/12 15:06:24;;;;;;;13.07;2.47;;;;;;;;;;4970653;28;20375;-90
2022/03/12 15:08:51;;;;;;;17.33;2.58;;;;;;;;;;4971956;28;20386;-92
2022/03/12 15:11:20;;;;;;;15.43;2.70;;;;;;;;;;4970101;28;20390;-90
2022/03/12 15:13:51;;;;;;;17.17;5.30;;;;;;;;;;4969525;28;20062;-89
2022/03/12 15:16:28;;;;;;;16.85;3.90;;;;;;;;;;4977968;28;20061;-91
2022/03/12 15:18:55;;;;;;;17.80;4.78;;;;;;;;;;4989387;28;20220;-90
2022/03/12 15:21:21;;;;;;;15.82;3.00;;;;;;;;;;4989140;28;20026;-91
2022/03/12 15:23:48;;;;;;;13.90;2.58;;;;;;;;;;4980786;28;20513;-90
2022/03/12 15:26:14;;;;;;;14.95;2.88;;;;;;;;;;4982513;28;20031;-91
2022/03/12 15:28:49;;;;;;;18.17;2.63;;;;;;;;;;4980894;28;20027;-90
2022/03/12 15:31:26;;;;;;;15.75;2.67;;;;;;;;;;4990434;28;20482;-90
2022/03/12 15:33:59;;;;;;;14.23;2.55;;;;;;;;;;4990673;28;20045;-91
2022/03/12 15:36:29;;;;;;;15.98;3.33;;;;;;;;;;4989437;28;20925;-91
2022/03/12 15:38:56;;;;;;;19.98;8.15;;;;;;;;;;4989037;28;20346;-92
2022/03/12 15:41:25;;;;;;;12.85;5.40;;;;;;;;;;4989697;28;20049;-93
2022/03/12 15:43:55;;;;;;;15.82;4.18;;;;;;;;;;4988998;28;20022;-91
2022/03/12 15:46:22;;;;;;;16.73;3.33;;;;;;;;;;4990384;28;20380;-91
2022/03/12 15:48:48;;;;;;;12.27;3.17;;;;;;;;;;4981016;28;20558;-91
2022/03/12 15:51:15;;;;;;;13.75;3.55;;;;;;;;;;4989199;28;20034;-92
2022/03/12 15:53:43;;;;;;;13.93;3.17;;;;;;;;;;4989316;28;20093;-93
2022/03/12 15:56:11;;;;;;;14.60;3.80;;;;;;;;;;4990474;28;20034;-91
2022/03/12 15:58:37;;;;;;;12.13;3.23;;;;;;;;;;4988964;28;20486;-92